sensor_id;sensor_type;location;lat;lon;timestamp;pressure;altitude;pressure_sealevel;temperature;humidity
12951;BME280;6540;50.858;7.232;2022-11-15T00:01:29;51794.03;;;-142.34;29.49
12951;BME280;6540;50.858;7.232;2022-11-15T00:03:55;51808.16;;;-142.34;30.23
12951;BME280;6540;50.858;7.232;2022-11-15T00:06:20;51783.94;;;-142.34;30.58
12951;BME280;6540;50.858;7.232;2022-11-15T00:08:45;51830.34;;;-142.34;29.94
12951;BME280;6540;50.858;7.232;2022-11-15T00:11:11;51812.19;;;-142.34;30.99
12951;BME280;6540;50.858;7.232;2022-11-15T00:13:37;51814.19;;;-142.34;31.27
12951;BME280;6540;50.858;7.232;2022-11-15T00:16:03;51765.78;;;-142.34;29.90
12951;BME280;6540;50.858;7.232;2022-11-15T00:18:29;51822.25;;;-142.34;30.33
12951;BME280;6540;50.858;7.232;2022-11-15T00:20:55;51790.00;;;-142.34;30.54
12951;BME280;6540;50.858;7.232;2022-11-15T00:23:21;51765.78;;;-142.34;29.51
12951;BME280;6540;50.858;7.232;2022-11-15T00:25:46;51826.31;;;-142.34;31.37
12951;BME280;6540;50.858;7.232;2022-11-15T00:28:12;51822.25;;;-142.34;31.45
12951;BME280;6540;50.858;7.232;2022-11-15T00:30:37;51798.06;;;-142.34;31.10
12951;BME280;6540;50.858;7.232;2022-11-15T00:33:06;51792.00;;;-142.34;30.92
12951;BME280;6540;50.858;7.232;2022-11-15T00:35:34;51794.03;;;-142.34;31.93
12951;BME280;6540;50.858;7.232;2022-11-15T00:38:00;51804.13;;;-142.34;31.59
12951;BME280;6540;50.858;7.232;2022-11-15T00:40:26;51822.25;;;-142.34;31.27
12951;BME280;6540;50.858;7.232;2022-11-15T00:42:51;51812.19;;;-142.34;30.38
12951;BME280;6540;50.858;7.232;2022-11-15T00:45:17;51802.09;;;-142.34;32.06
12951;BME280;6540;50.858;7.232;2022-11-15T00:47:45;51826.31;;;-142.34;31.99
12951;BME280;6540;50.858;7.232;2022-11-15T00:50:11;51822.25;;;-142.34;31.45
12951;BME280;6540;50.858;7.232;2022-11-15T00:52:37;51854.53;;;-142.34;31.63
12951;BME280;6540;50.858;7.232;2022-11-15T00:55:03;51810.16;;;-142.34;30.36
12951;BME280;6540;50.858;7.232;2022-11-15T00:57:28;51814.19;;;-142.34;29.78
12951;BME280;6540;50.858;7.232;2022-11-15T00:59:53;51814.19;;;-142.34;33.17
12951;BME280;6540;50.858;7.232;2022-11-15T01:02:19;51806.13;;;-142.34;31.43
12951;BME280;6540;50.858;7.232;2022-11-15T01:04:44;51832.34;;;-142.34;29.82
12951;BME280;6540;50.858;7.232;2022-11-15T01:07:09;51846.47;;;-142.34;31.72
12951;BME280;6540;50.858;7.232;2022-11-15T01:09:34;51818.22;;;-142.34;31.44
12951;BME280;6540;50.858;7.232;2022-11-15T01:12:00;51830.34;;;-142.34;30.08
12951;BME280;6540;50.858;7.232;2022-11-15T01:14:25;51802.09;;;-142.34;30.27
12951;BME280;6540;50.858;7.232;2022-11-15T01:16:51;51828.31;;;-142.34;30.60
12951;BME280;6540;50.858;7.232;2022-11-15T01:19:16;51790.00;;;-142.34;30.62
12951;BME280;6540;50.858;7.232;2022-11-15T01:21:41;51806.13;;;-142.34;31.53
12951;BME280;6540;50.858;7.232;2022-11-15T01:24:08;51810.16;;;-142.34;30.38
12951;BME280;6540;50.858;7.232;2022-11-15T01:26:36;51822.25;;;-142.34;29.80
12951;BME280;6540;50.858;7.232;2022-11-15T01:29:02;51818.22;;;-142.34;30.14
12951;BME280;6540;50.858;7.232;2022-11-15T01:31:27;51777.88;;;-142.34;30.33
12951;BME280;6540;50.858;7.232;2022-11-15T01:33:53;51822.25;;;-142.34;30.32
12951;BME280;6540;50.858;7.232;2022-11-15T01:36:21;51810.16;;;-142.34;31.37
12951;BME280;6540;50.858;7.232;2022-11-15T01:38:53;51773.84;;;-142.34;30.17
12951;BME280;6540;50.858;7.232;2022-11-15T01:41:24;51808.16;;;-142.34;30.00
12951;BME280;6540;50.858;7.232;2022-11-15T01:43:56;51771.84;;;-142.34;30.82
12951;BME280;6540;50.858;7.232;2022-11-15T01:48:47;51771.84;;;-142.34;30.70
12951;BME280;6540;50.858;7.232;2022-11-15T01:51:15;51785.94;;;-142.34;30.55
12951;BME280;6540;50.858;7.232;2022-11-15T01:53:46;51761.75;;;-142.34;30.52
12951;BME280;6540;50.858;7.232;2022-11-15T01:56:17;51769.81;;;-142.34;31.23
12951;BME280;6540;50.858;7.232;2022-11-15T01:58:44;51769.81;;;-142.34;30.88
12951;BME280;6540;50.858;7.232;2022-11-15T02:01:11;51765.78;;;-142.34;31.36
12951;BME280;6540;50.858;7.232;2022-11-15T02:03:48;51753.69;;;-142.34;30.31
12951;BME280;6540;50.858;7.232;2022-11-15T02:06:16;51739.56;;;-142.34;30.98
12951;BME280;6540;50.858;7.232;2022-11-15T02:08:42;51785.94;;;-142.34;30.72
12951;BME280;6540;50.858;7.232;2022-11-15T02:11:08;51753.69;;;-142.34;30.67
12951;BME280;6540;50.858;7.232;2022-11-15T02:13:34;51749.66;;;-142.34;31.66
12951;BME280;6540;50.858;7.232;2022-11-15T02:18:48;51787.97;;;-142.34;31.32
12951;BME280;6540;50.858;7.232;2022-11-15T02:29:31;51747.63;;;-142.34;30.72
12951;BME280;6540;50.858;7.232;2022-11-15T02:32:40;51749.66;;;-142.34;30.28
12951;BME280;6540;50.858;7.232;2022-11-15T02:35:16;51741.56;;;-142.34;30.94
12951;BME280;6540;50.858;7.232;2022-11-15T02:38:06;51765.78;;;-142.34;30.71
12951;BME280;6540;50.858;7.232;2022-11-15T02:40:49;51753.69;;;-142.34;31.03
12951;BME280;6540;50.858;7.232;2022-11-15T02:43:54;51759.72;;;-142.34;30.74
12951;BME280;6540;50.858;7.232;2022-11-15T02:49:14;51775.88;;;-142.34;33.03
12951;BME280;6540;50.858;7.232;2022-11-15T02:51:41;51777.88;;;-142.34;31.23
12951;BME280;6540;50.858;7.232;2022-11-15T02:54:12;51781.91;;;-142.34;30.97
12951;BME280;6540;50.858;7.232;2022-11-15T02:56:38;51781.91;;;-142.34;32.32
12951;BME280;6540;50.858;7.232;2022-11-15T02:59:27;51745.59;;;-142.34;32.33
12951;BME280;6540;50.858;7.232;2022-11-15T03:04:44;51775.88;;;-142.34;32.13
12951;BME280;6540;50.858;7.232;2022-11-15T03:07:15;51743.59;;;-142.34;30.75
12951;BME280;6540;50.858;7.232;2022-11-15T03:10:07;51729.47;;;-142.34;30.64
12951;BME280;6540;50.858;7.232;2022-11-15T03:15:21;51765.78;;;-142.34;30.94
12951;BME280;6540;50.858;7.232;2022-11-15T03:20:26;51804.13;;;-142.34;32.88
12951;BME280;6540;50.858;7.232;2022-11-15T03:22:55;51729.47;;;-142.34;30.43
12951;BME280;6540;50.858;7.232;2022-11-15T03:25:24;51765.78;;;-142.34;31.07
12951;BME280;6540;50.858;7.232;2022-11-15T03:27:53;51753.69;;;-142.34;31.09
12951;BME280;6540;50.858;7.232;2022-11-15T03:30:20;51761.75;;;-142.34;31.24
12951;BME280;6540;50.858;7.232;2022-11-15T03:32:56;51745.59;;;-142.34;30.88
12951;BME280;6540;50.858;7.232;2022-11-15T03:35:25;51745.59;;;-142.34;30.44
12951;BME280;6540;50.858;7.232;2022-11-15T03:40:37;51735.53;;;-142.34;30.06
12951;BME280;6540;50.858;7.232;2022-11-15T03:43:29;51719.38;;;-142.34;29.69
12951;BME280;6540;50.858;7.232;2022-11-15T03:46:04;51715.34;;;-142.34;29.50
12951;BME280;6540;50.858;7.232;2022-11-15T03:48:46;51751.66;;;-142.34;31.23
12951;BME280;6540;50.858;7.232;2022-11-15T03:51:15;51769.81;;;-142.34;30.63
12951;BME280;6540;50.858;7.232;2022-11-15T03:53:40;51757.72;;;-142.34;30.62
12951;BME280;6540;50.858;7.232;2022-11-15T03:56:06;51705.25;;;-142.34;29.85
12951;BME280;6540;50.858;7.232;2022-11-15T03:58:31;51773.84;;;-142.34;30.71
12951;BME280;6540;50.858;7.232;2022-11-15T04:00:57;51747.63;;;-142.34;30.89
12951;BME280;6540;50.858;7.232;2022-11-15T04:03:24;51751.66;;;-142.34;30.83
12951;BME280;6540;50.858;7.232;2022-11-15T04:05:50;51745.59;;;-142.34;30.88
12951;BME280;6540;50.858;7.232;2022-11-15T04:08:15;51749.66;;;-142.34;30.78
12951;BME280;6540;50.858;7.232;2022-11-15T04:10:40;51761.75;;;-142.34;30.67
12951;BME280;6540;50.858;7.232;2022-11-15T04:13:05;51745.59;;;-142.34;30.53
12951;BME280;6540;50.858;7.232;2022-11-15T04:15:31;51737.53;;;-142.34;31.07
12951;BME280;6540;50.858;7.232;2022-11-15T04:17:57;51751.66;;;-142.34;30.21
12951;BME280;6540;50.858;7.232;2022-11-15T04:20:24;51747.63;;;-142.34;31.64
12951;BME280;6540;50.858;7.232;2022-11-15T04:23:16;51759.72;;;-142.34;31.72
12951;BME280;6540;50.858;7.232;2022-11-15T04:26:10;51757.72;;;-142.34;31.46
12951;BME280;6540;50.858;7.232;2022-11-15T04:28:36;51749.66;;;-142.34;29.85
12951;BME280;6540;50.858;7.232;2022-11-15T04:31:24;51741.56;;;-142.34;30.19
12951;BME280;6540;50.858;7.232;2022-11-15T04:33:50;51761.75;;;-142.34;31.35
12951;BME280;6540;50.858;7.232;2022-11-15T04:36:15;51745.59;;;-142.34;30.18
12951;BME280;6540;50.858;7.232;2022-11-15T04:39:13;51747.63;;;-142.34;29.98
12951;BME280;6540;50.858;7.232;2022-11-15T04:41:38;51733.50;;;-142.34;29.70
12951;BME280;6540;50.858;7.232;2022-11-15T04:44:03;51741.56;;;-142.34;29.87
12951;BME280;6540;50.858;7.232;2022-11-15T04:46:28;51733.50;;;-142.34;30.21
12951;BME280;6540;50.858;7.232;2022-11-15T04:48:54;51737.53;;;-142.34;30.71
12951;BME280;6540;50.858;7.232;2022-11-15T04:51:20;51749.66;;;-142.34;30.54
12951;BME280;6540;50.858;7.232;2022-11-15T04:53:46;51753.69;;;-142.34;30.33
12951;BME280;6540;50.858;7.232;2022-11-15T04:56:11;51761.75;;;-142.34;30.60
12951;BME280;6540;50.858;7.232;2022-11-15T04:58:37;51743.59;;;-142.34;31.18
12951;BME280;6540;50.858;7.232;2022-11-15T05:01:13;51737.53;;;-142.34;30.36
12951;BME280;6540;50.858;7.232;2022-11-15T05:03:42;51717.38;;;-142.34;30.43
12951;BME280;6540;50.858;7.232;2022-11-15T05:06:26;51741.56;;;-142.34;29.99
12951;BME280;6540;50.858;7.232;2022-11-15T05:08:52;51733.50;;;-142.34;30.38
12951;BME280;6540;50.858;7.232;2022-11-15T05:11:17;51723.41;;;-142.34;31.38
12951;BME280;6540;50.858;7.232;2022-11-15T05:13:43;51757.72;;;-142.34;30.87
12951;BME280;6540;50.858;7.232;2022-11-15T05:16:08;51747.63;;;-142.34;30.87
12951;BME280;6540;50.858;7.232;2022-11-15T05:18:34;51753.69;;;-142.34;30.51
12951;BME280;6540;50.858;7.232;2022-11-15T05:21:07;51725.44;;;-142.34;30.42
12951;BME280;6540;50.858;7.232;2022-11-15T05:23:32;51769.81;;;-142.34;30.88
12951;BME280;6540;50.858;7.232;2022-11-15T05:25:59;51725.44;;;-142.34;30.36
12951;BME280;6540;50.858;7.232;2022-11-15T05:28:25;51699.22;;;-142.34;30.87
12951;BME280;6540;50.858;7.232;2022-11-15T05:30:50;51753.69;;;-142.34;30.99
12951;BME280;6540;50.858;7.232;2022-11-15T05:33:15;51737.53;;;-142.34;30.82
12951;BME280;6540;50.858;7.232;2022-11-15T05:35:42;51747.63;;;-142.34;30.34
12951;BME280;6540;50.858;7.232;2022-11-15T05:38:10;51757.72;;;-142.34;31.27
12951;BME280;6540;50.858;7.232;2022-11-15T05:40:36;51743.59;;;-142.34;31.65
12951;BME280;6540;50.858;7.232;2022-11-15T05:43:02;51755.69;;;-142.34;31.44
12951;BME280;6540;50.858;7.232;2022-11-15T05:45:29;51743.59;;;-142.34;30.20
12951;BME280;6540;50.858;7.232;2022-11-15T05:47:56;51747.63;;;-142.34;30.59
12951;BME280;6540;50.858;7.232;2022-11-15T05:50:23;51707.28;;;-142.34;30.53
12951;BME280;6540;50.858;7.232;2022-11-15T05:52:50;51767.81;;;-142.34;30.33
12951;BME280;6540;50.858;7.232;2022-11-15T05:55:16;51761.75;;;-142.34;30.64
12951;BME280;6540;50.858;7.232;2022-11-15T05:57:41;51749.66;;;-142.34;30.87
12951;BME280;6540;50.858;7.232;2022-11-15T06:00:08;51755.69;;;-142.34;30.78
12951;BME280;6540;50.858;7.232;2022-11-15T06:02:34;51781.91;;;-142.34;30.75
12951;BME280;6540;50.858;7.232;2022-11-15T06:04:59;51721.41;;;-142.34;30.21
12951;BME280;6540;50.858;7.232;2022-11-15T06:07:25;51765.78;;;-142.34;31.32
12951;BME280;6540;50.858;7.232;2022-11-15T06:09:50;51741.56;;;-142.34;30.46
12951;BME280;6540;50.858;7.232;2022-11-15T06:12:16;51729.47;;;-142.34;30.44
12951;BME280;6540;50.858;7.232;2022-11-15T06:14:41;51725.44;;;-142.34;30.43
12951;BME280;6540;50.858;7.232;2022-11-15T06:17:06;51755.69;;;-142.34;30.15
12951;BME280;6540;50.858;7.232;2022-11-15T06:19:32;51757.72;;;-142.34;30.94
12951;BME280;6540;50.858;7.232;2022-11-15T06:22:01;51739.56;;;-142.34;30.21
12951;BME280;6540;50.858;7.232;2022-11-15T06:24:26;51749.66;;;-142.34;30.82
12951;BME280;6540;50.858;7.232;2022-11-15T06:26:52;51749.66;;;-142.34;29.89
12951;BME280;6540;50.858;7.232;2022-11-15T06:29:17;51763.75;;;-142.34;30.53
12951;BME280;6540;50.858;7.232;2022-11-15T06:31:42;51757.72;;;-142.34;30.11
12951;BME280;6540;50.858;7.232;2022-11-15T06:34:08;51765.78;;;-142.34;30.55
12951;BME280;6540;50.858;7.232;2022-11-15T06:36:36;51745.59;;;-142.34;30.19
12951;BME280;6540;50.858;7.232;2022-11-15T06:39:03;51741.56;;;-142.34;30.31
12951;BME280;6540;50.858;7.232;2022-11-15T06:41:29;51759.72;;;-142.34;30.53
12951;BME280;6540;50.858;7.232;2022-11-15T06:43:54;51745.59;;;-142.34;30.43
12951;BME280;6540;50.858;7.232;2022-11-15T06:46:19;51751.66;;;-142.34;29.78
12951;BME280;6540;50.858;7.232;2022-11-15T06:48:45;51781.91;;;-142.34;30.82
12951;BME280;6540;50.858;7.232;2022-11-15T06:51:10;51798.06;;;-142.34;30.53
12951;BME280;6540;50.858;7.232;2022-11-15T06:53:36;51765.78;;;-142.34;30.80
12951;BME280;6540;50.858;7.232;2022-11-15T06:56:06;51745.59;;;-142.34;30.14
12951;BME280;6540;50.858;7.232;2022-11-15T06:58:32;51773.84;;;-142.34;30.26
12951;BME280;6540;50.858;7.232;2022-11-15T07:01:08;51757.72;;;-142.34;30.46
12951;BME280;6540;50.858;7.232;2022-11-15T07:03:35;51743.59;;;-142.34;30.46
12951;BME280;6540;50.858;7.232;2022-11-15T07:06:01;51773.84;;;-142.34;30.70
12951;BME280;6540;50.858;7.232;2022-11-15T07:08:27;51769.81;;;-142.34;31.00
12951;BME280;6540;50.858;7.232;2022-11-15T07:10:54;51753.69;;;-142.34;31.02
12951;BME280;6540;50.858;7.232;2022-11-15T07:13:19;51739.56;;;-142.34;29.59
12951;BME280;6540;50.858;7.232;2022-11-15T07:15:44;51749.66;;;-142.34;30.41
12951;BME280;6540;50.858;7.232;2022-11-15T07:18:10;51798.06;;;-142.34;30.43
12951;BME280;6540;50.858;7.232;2022-11-15T07:20:35;51725.44;;;-142.34;29.85
12951;BME280;6540;50.858;7.232;2022-11-15T07:23:02;51773.84;;;-142.34;30.29
12951;BME280;6540;50.858;7.232;2022-11-15T07:25:27;51757.72;;;-142.34;30.09
12951;BME280;6540;50.858;7.232;2022-11-15T07:27:57;51769.81;;;-142.34;31.04
12951;BME280;6540;50.858;7.232;2022-11-15T07:30:22;51741.56;;;-142.34;29.72
12951;BME280;6540;50.858;7.232;2022-11-15T07:32:58;51771.84;;;-142.34;30.58
12951;BME280;6540;50.858;7.232;2022-11-15T07:35:25;51777.88;;;-142.34;31.18
12951;BME280;6540;50.858;7.232;2022-11-15T07:37:59;51790.00;;;-142.34;30.93
12951;BME280;6540;50.858;7.232;2022-11-15T07:40:26;51787.97;;;-142.34;31.00
12951;BME280;6540;50.858;7.232;2022-11-15T07:42:52;51773.84;;;-142.34;30.79
12951;BME280;6540;50.858;7.232;2022-11-15T07:45:17;51773.84;;;-142.34;30.70
12951;BME280;6540;50.858;7.232;2022-11-15T07:47:47;51777.88;;;-142.34;30.50
12951;BME280;6540;50.858;7.232;2022-11-15T07:50:12;51785.94;;;-142.34;29.93
12951;BME280;6540;50.858;7.232;2022-11-15T07:52:38;51775.88;;;-142.34;29.80
12951;BME280;6540;50.858;7.232;2022-11-15T07:55:03;51755.69;;;-142.34;30.25
12951;BME280;6540;50.858;7.232;2022-11-15T07:57:30;51763.75;;;-142.34;29.87
12951;BME280;6540;50.858;7.232;2022-11-15T07:59:55;51783.94;;;-142.34;30.23
12951;BME280;6540;50.858;7.232;2022-11-15T08:02:21;51777.88;;;-142.34;29.86
12951;BME280;6540;50.858;7.232;2022-11-15T08:04:46;51759.72;;;-142.34;30.23
12951;BME280;6540;50.858;7.232;2022-11-15T08:07:12;51787.97;;;-142.34;30.03
12951;BME280;6540;50.858;7.232;2022-11-15T08:09:37;51777.88;;;-142.34;30.60
12951;BME280;6540;50.858;7.232;2022-11-15T08:12:03;51775.88;;;-142.34;30.40
12951;BME280;6540;50.858;7.232;2022-11-15T08:14:28;51765.78;;;-142.34;30.58
12951;BME280;6540;50.858;7.232;2022-11-15T08:16:57;51745.59;;;-142.34;29.77
12951;BME280;6540;50.858;7.232;2022-11-15T08:19:22;51733.50;;;-142.34;29.87
12951;BME280;6540;50.858;7.232;2022-11-15T08:21:47;51749.66;;;-142.34;30.34
12951;BME280;6540;50.858;7.232;2022-11-15T08:24:13;51785.94;;;-142.34;30.33
12951;BME280;6540;50.858;7.232;2022-11-15T08:26:38;51747.63;;;-142.34;29.81
12951;BME280;6540;50.858;7.232;2022-11-15T08:29:05;51755.69;;;-142.34;29.95
12951;BME280;6540;50.858;7.232;2022-11-15T08:31:30;51751.66;;;-142.34;29.31
12951;BME280;6540;50.858;7.232;2022-11-15T08:33:55;51739.56;;;-142.34;29.83
12951;BME280;6540;50.858;7.232;2022-11-15T08:36:21;51757.72;;;-142.34;29.73
12951;BME280;6540;50.858;7.232;2022-11-15T08:38:46;51751.66;;;-142.34;30.08
12951;BME280;6540;50.858;7.232;2022-11-15T08:41:19;51783.94;;;-142.34;29.29
12951;BME280;6540;50.858;7.232;2022-11-15T08:43:47;51761.75;;;-142.34;29.23
12951;BME280;6540;50.858;7.232;2022-11-15T08:46:13;51729.47;;;-142.34;28.85
12951;BME280;6540;50.858;7.232;2022-11-15T08:48:38;51745.59;;;-142.34;30.30
12951;BME280;6540;50.858;7.232;2022-11-15T08:51:04;51731.50;;;-142.34;29.19
12951;BME280;6540;50.858;7.232;2022-11-15T08:53:29;51705.25;;;-142.34;29.53
12951;BME280;6540;50.858;7.232;2022-11-15T08:55:55;51745.59;;;-142.34;29.51
12951;BME280;6540;50.858;7.232;2022-11-15T08:58:20;51731.50;;;-142.34;29.34
12951;BME280;6540;50.858;7.232;2022-11-15T09:00:46;51733.50;;;-142.34;28.75
12951;BME280;6540;50.858;7.232;2022-11-15T09:03:11;51741.56;;;-142.34;29.00
12951;BME280;6540;50.858;7.232;2022-11-15T09:05:37;51743.59;;;-142.34;30.48
12951;BME280;6540;50.858;7.232;2022-11-15T09:08:03;51717.38;;;-142.34;28.82
12951;BME280;6540;50.858;7.232;2022-11-15T09:10:28;51693.16;;;-142.34;28.95
12951;BME280;6540;50.858;7.232;2022-11-15T09:12:54;51705.25;;;-142.34;29.65
12951;BME280;6540;50.858;7.232;2022-11-15T09:15:21;51731.50;;;-142.34;29.32
12951;BME280;6540;50.858;7.232;2022-11-15T09:17:46;51711.31;;;-142.34;28.32
12951;BME280;6540;50.858;7.232;2022-11-15T09:20:12;51737.53;;;-142.34;28.80
12951;BME280;6540;50.858;7.232;2022-11-15T09:22:37;51717.38;;;-142.34;28.66
12951;BME280;6540;50.858;7.232;2022-11-15T09:25:04;51729.47;;;-142.34;29.44
12951;BME280;6540;50.858;7.232;2022-11-15T09:27:30;51709.31;;;-142.34;28.79
12951;BME280;6540;50.858;7.232;2022-11-15T09:29:55;51739.56;;;-142.34;29.04
12951;BME280;6540;50.858;7.232;2022-11-15T09:32:21;51697.19;;;-142.34;28.63
12951;BME280;6540;50.858;7.232;2022-11-15T09:34:48;51745.59;;;-142.34;28.53
12951;BME280;6540;50.858;7.232;2022-11-15T09:37:14;51747.63;;;-142.34;29.69
12951;BME280;6540;50.858;7.232;2022-11-15T09:39:39;51745.59;;;-142.34;28.17
12951;BME280;6540;50.858;7.232;2022-11-15T09:45:05;51721.41;;;-142.34;28.78
12951;BME280;6540;50.858;7.232;2022-11-15T09:50:13;51737.53;;;-142.34;28.63
12951;BME280;6540;50.858;7.232;2022-11-15T09:52:43;51727.44;;;-142.34;28.42
12951;BME280;6540;50.858;7.232;2022-11-15T09:55:14;51727.44;;;-142.34;28.91
12951;BME280;6540;50.858;7.232;2022-11-15T09:58:10;51733.50;;;-142.34;28.58
12951;BME280;6540;50.858;7.232;2022-11-15T10:00:43;51735.53;;;-142.34;28.39
12951;BME280;6540;50.858;7.232;2022-11-15T10:03:38;51711.31;;;-142.34;27.66
12951;BME280;6540;50.858;7.232;2022-11-15T10:06:04;51717.38;;;-142.34;28.06
12951;BME280;6540;50.858;7.232;2022-11-15T10:11:02;51717.38;;;-142.34;28.83
12951;BME280;6540;50.858;7.232;2022-11-15T10:13:32;51735.53;;;-142.34;28.22
12951;BME280;6540;50.858;7.232;2022-11-15T10:22:18;51769.81;;;-142.34;27.54
12951;BME280;6540;50.858;7.232;2022-11-15T10:24:45;51735.53;;;-142.34;27.93
12951;BME280;6540;50.858;7.232;2022-11-15T10:27:14;51717.38;;;-142.34;27.79
12951;BME280;6540;50.858;7.232;2022-11-15T10:29:44;51721.41;;;-142.34;28.82
12951;BME280;6540;50.858;7.232;2022-11-15T10:32:12;51713.34;;;-142.34;27.66
12951;BME280;6540;50.858;7.232;2022-11-15T10:34:38;51755.69;;;-142.34;28.45
12951;BME280;6540;50.858;7.232;2022-11-15T10:37:09;51733.50;;;-142.34;28.23
12951;BME280;6540;50.858;7.232;2022-11-15T10:39:35;51749.66;;;-142.34;28.70
12951;BME280;6540;50.858;7.232;2022-11-15T10:42:22;51737.53;;;-142.34;27.60
12951;BME280;6540;50.858;7.232;2022-11-15T10:44:50;51715.34;;;-142.34;27.54
12951;BME280;6540;50.858;7.232;2022-11-15T10:50:01;51743.59;;;-142.34;27.75
12951;BME280;6540;50.858;7.232;2022-11-15T10:52:29;51725.44;;;-142.34;28.26
12951;BME280;6540;50.858;7.232;2022-11-15T10:57:54;51713.34;;;-142.34;27.20
12951;BME280;6540;50.858;7.232;2022-11-15T11:08:02;51721.41;;;-142.34;27.00
12951;BME280;6540;50.858;7.232;2022-11-15T11:10:29;51733.50;;;-142.34;27.22
12951;BME280;6540;50.858;7.232;2022-11-15T11:12:54;51721.41;;;-142.34;27.38
12951;BME280;6540;50.858;7.232;2022-11-15T11:15:22;51717.38;;;-142.34;27.62
12951;BME280;6540;50.858;7.232;2022-11-15T11:20:44;51757.72;;;-142.34;27.36
12951;BME280;6540;50.858;7.232;2022-11-15T11:37:17;51713.34;;;-142.34;26.88
12951;BME280;6540;50.858;7.232;2022-11-15T11:50:37;51707.28;;;-142.34;26.85
12951;BME280;6540;50.858;7.232;2022-11-15T11:53:27;51733.50;;;-142.34;26.58
12951;BME280;6540;50.858;7.232;2022-11-15T11:55:57;51697.19;;;-142.34;26.68
12951;BME280;6540;50.858;7.232;2022-11-15T12:01:13;51699.22;;;-142.34;26.80
12951;BME280;6540;50.858;7.232;2022-11-15T12:11:23;51660.88;;;-142.34;26.49
12951;BME280;6540;50.858;7.232;2022-11-15T12:13:59;51721.41;;;-142.34;27.87
12951;BME280;6540;50.858;7.232;2022-11-15T12:16:28;51739.56;;;-142.34;28.55
12951;BME280;6540;50.858;7.232;2022-11-15T12:18:57;51703.25;;;-142.34;27.65
12951;BME280;6540;50.858;7.232;2022-11-15T12:21:35;51749.66;;;-142.34;27.98
12951;BME280;6540;50.858;7.232;2022-11-15T12:24:13;51753.69;;;-142.34;27.90
12951;BME280;6540;50.858;7.232;2022-11-15T12:29:42;51703.25;;;-142.34;28.29
12951;BME280;6540;50.858;7.232;2022-11-15T12:32:31;51705.25;;;-142.34;27.19
12951;BME280;6540;50.858;7.232;2022-11-15T12:34:59;51650.81;;;-142.34;27.25
12951;BME280;6540;50.858;7.232;2022-11-15T12:42:40;51673.00;;;-142.34;27.51
12951;BME280;6540;50.858;7.232;2022-11-15T12:47:51;51701.22;;;-142.34;27.70
12951;BME280;6540;50.858;7.232;2022-11-15T13:07:54;51713.34;;;-142.34;27.59
12951;BME280;6540;50.858;7.232;2022-11-15T13:09:55;51668.97;;;-142.34;27.34
12951;BME280;6540;50.858;7.232;2022-11-15T13:14:49;51677.03;;;-142.34;28.04
12951;BME280;6540;50.858;7.232;2022-11-15T13:17:23;51668.97;;;-142.34;27.28
12951;BME280;6540;50.858;7.232;2022-11-15T13:22:26;51677.03;;;-142.34;27.63
12951;BME280;6540;50.858;7.232;2022-11-15T13:28:03;51693.16;;;-142.34;27.41
12951;BME280;6540;50.858;7.232;2022-11-15T13:30:35;51652.81;;;-142.34;27.15
12951;BME280;6540;50.858;7.232;2022-11-15T13:33:09;51668.97;;;-142.34;26.99
12951;BME280;6540;50.858;7.232;2022-11-15T13:35:39;51709.31;;;-142.34;27.75
12951;BME280;6540;50.858;7.232;2022-11-15T13:38:06;51681.06;;;-142.34;27.32
12951;BME280;6540;50.858;7.232;2022-11-15T13:40:36;51664.91;;;-142.34;26.68
12951;BME280;6540;50.858;7.232;2022-11-15T13:43:37;51697.19;;;-142.34;28.56
12951;BME280;6540;50.858;7.232;2022-11-15T13:46:15;51715.34;;;-142.34;28.22
12951;BME280;6540;50.858;7.232;2022-11-15T13:48:42;51711.31;;;-142.34;28.61
12951;BME280;6540;50.858;7.232;2022-11-15T13:53:42;51743.59;;;-142.34;28.89
12951;BME280;6540;50.858;7.232;2022-11-15T13:56:12;51733.50;;;-142.34;29.02
12951;BME280;6540;50.858;7.232;2022-11-15T13:58:38;51733.50;;;-142.34;29.55
12951;BME280;6540;50.858;7.232;2022-11-15T14:01:05;51715.34;;;-142.34;28.30
12951;BME280;6540;50.858;7.232;2022-11-15T14:03:39;51705.25;;;-142.34;27.96
12951;BME280;6540;50.858;7.232;2022-11-15T14:08:33;51723.41;;;-142.34;28.56
12951;BME280;6540;50.858;7.232;2022-11-15T14:13:39;51673.00;;;-142.34;27.27
12951;BME280;6540;50.858;7.232;2022-11-15T14:16:21;51701.22;;;-142.34;27.69
12951;BME280;6540;50.858;7.232;2022-11-15T14:18:57;51683.06;;;-142.34;27.93
12951;BME280;6540;50.858;7.232;2022-11-15T14:21:22;51681.06;;;-142.34;27.99
12951;BME280;6540;50.858;7.232;2022-11-15T14:23:47;51697.19;;;-142.34;27.80
12951;BME280;6540;50.858;7.232;2022-11-15T14:26:29;51681.06;;;-142.34;27.51
12951;BME280;6540;50.858;7.232;2022-11-15T14:28:54;51719.38;;;-142.34;28.43
12951;BME280;6540;50.858;7.232;2022-11-15T14:31:20;51721.41;;;-142.34;28.21
12951;BME280;6540;50.858;7.232;2022-11-15T14:33:46;51681.06;;;-142.34;27.68
12951;BME280;6540;50.858;7.232;2022-11-15T14:36:15;51681.06;;;-142.34;27.56
12951;BME280;6540;50.858;7.232;2022-11-15T14:38:41;51697.19;;;-142.34;27.08
12951;BME280;6540;50.858;7.232;2022-11-15T14:41:24;51664.91;;;-142.34;26.95
12951;BME280;6540;50.858;7.232;2022-11-15T14:43:51;51721.41;;;-142.34;28.16
12951;BME280;6540;50.858;7.232;2022-11-15T14:46:16;51711.31;;;-142.34;28.54
12951;BME280;6540;50.858;7.232;2022-11-15T14:48:42;51699.22;;;-142.34;28.14
12951;BME280;6540;50.858;7.232;2022-11-15T14:51:16;51731.50;;;-142.34;28.39
12951;BME280;6540;50.858;7.232;2022-11-15T14:53:42;51713.34;;;-142.34;27.75
12951;BME280;6540;50.858;7.232;2022-11-15T14:56:08;51743.59;;;-142.34;28.69
12951;BME280;6540;50.858;7.232;2022-11-15T14:58:34;51717.38;;;-142.34;28.24
12951;BME280;6540;50.858;7.232;2022-11-15T15:01:02;51733.50;;;-142.34;28.95
12951;BME280;6540;50.858;7.232;2022-11-15T15:03:27;51660.88;;;-142.34;27.61
12951;BME280;6540;50.858;7.232;2022-11-15T15:05:53;51717.38;;;-142.34;27.82
12951;BME280;6540;50.858;7.232;2022-11-15T15:08:18;51709.31;;;-142.34;28.20
12951;BME280;6540;50.858;7.232;2022-11-15T15:10:44;51685.09;;;-142.34;28.11
12951;BME280;6540;50.858;7.232;2022-11-15T15:15:43;51705.25;;;-142.34;27.84
12951;BME280;6540;50.858;7.232;2022-11-15T15:18:09;51715.34;;;-142.34;28.14